createdAt,value
2019-04-23T00:00:23.534Z,96425.12
2019-04-23T00:01:46.117Z,96423.55
2019-04-23T00:02:44.440Z,96423.33
2019-04-23T00:03:36.062Z,96416.58
2019-04-23T00:04:26.589Z,96419.13
2019-04-23T00:05:17.257Z,96422.00
2019-04-23T00:06:15.164Z,96425.70
2019-04-23T00:07:15.827Z,96421.93
2019-04-23T00:07:52.865Z,96418.95
2019-04-23T00:08:41.604Z,96420.26
2019-04-23T00:09:27.706Z,96419.03
2019-04-23T00:10:19.454Z,96416.86
2019-04-23T00:12:03.285Z,96415.20
2019-04-23T00:12:49.588Z,96407.30
2019-04-23T00:13:44.207Z,96411.77
2019-04-23T00:14:40.899Z,96412.72
2019-04-23T00:15:26.117Z,96413.07
2019-04-23T00:16:15.417Z,96409.30
2019-04-23T00:17:04.710Z,96412.42
2019-04-23T00:18:12.517Z,96410.02
2019-04-23T00:18:46.471Z,96406.62
2019-04-23T00:19:31.107Z,96397.06
2019-04-23T00:20:20.143Z,96410.67
2019-04-23T00:21:33.111Z,96405.75
2019-04-23T00:22:50.074Z,96404.50
2019-04-23T00:23:35.249Z,96410.72
2019-04-23T00:24:56.782Z,96399.66
2019-04-23T00:26:42.567Z,96392.84
2019-04-23T00:27:40.447Z,96404.54
2019-04-23T00:28:21.733Z,96399.71
2019-04-23T00:29:13.537Z,96398.26
2019-04-23T00:30:06.546Z,96393.11
2019-04-23T00:30:55.277Z,96390.17
2019-04-23T00:34:09.377Z,96392.31
2019-04-23T00:35:00.218Z,96388.77
2019-04-23T00:35:50.373Z,96399.05
2019-04-23T00:36:44.530Z,96401.23
2019-04-23T00:38:30.452Z,96387.77
2019-04-23T00:39:11.732Z,96388.72
2019-04-23T00:40:03.182Z,96383.92
2019-04-23T00:40:51.108Z,96385.09
2019-04-23T00:41:42.569Z,96375.03
2019-04-23T00:42:36.551Z,96381.09
2019-04-23T00:44:14.949Z,96382.16
2019-04-23T00:45:00.481Z,96387.22
2019-04-23T00:46:50.691Z,96385.16
2019-04-23T00:47:37.932Z,96372.63
2019-04-23T00:48:36.401Z,96381.19
2019-04-23T00:49:21.311Z,96387.40
2019-04-23T00:50:12.657Z,96384.20
2019-04-23T00:51:10.010Z,96393.00
2019-04-23T00:51:49.717Z,96392.34
2019-04-23T00:52:44.184Z,96382.66
2019-04-23T00:53:28.310Z,96374.09
2019-04-23T00:56:20.654Z,96378.69
2019-04-23T00:56:55.016Z,96387.28
2019-04-23T00:57:40.560Z,96382.14
2019-04-23T00:58:33.696Z,96380.31
2019-04-23T00:59:27.039Z,96391.42
2019-04-23T01:00:29.574Z,96389.02
2019-04-23T01:01:03.898Z,96391.34
2019-04-23T01:01:56.882Z,96391.45
2019-04-23T01:03:33.796Z,96379.96
2019-04-23T01:04:32.775Z,96385.22
2019-04-23T01:05:17.198Z,96376.30
2019-04-23T01:06:07.765Z,96377.25
2019-04-23T01:07:01.024Z,96379.33
2019-04-23T01:08:36.740Z,96381.15
2019-04-23T01:09:34.583Z,96381.95
2019-04-23T01:10:27.085Z,96376.03
2019-04-23T01:11:16.642Z,96383.23
2019-04-23T01:12:14.056Z,96382.42
2019-04-23T01:12:59.653Z,96378.89
2019-04-23T01:13:49.197Z,96379.26
2019-04-23T01:14:43.018Z,96374.34
2019-04-23T01:15:37.215Z,96382.91
2019-04-23T01:16:15.278Z,96374.83
2019-04-23T01:17:17.001Z,96366.71
2019-04-23T01:18:02.165Z,96375.88
2019-04-23T01:18:54.098Z,96365.02
2019-04-23T01:19:54.779Z,96373.01
2019-04-23T01:20:54.079Z,96368.01
2019-04-23T01:21:43.289Z,96363.47
2019-04-23T01:22:33.821Z,96366.22
2019-04-23T01:23:58.664Z,96367.25
2019-04-23T01:25:07.356Z,96368.96
2019-04-23T01:25:58.162Z,96371.03
2019-04-23T01:27:35.849Z,96369.58
2019-04-23T01:28:13.960Z,96362.27
2019-04-23T01:29:06.761Z,96367.84
2019-04-23T01:29:58.609Z,96364.11
2019-04-23T01:30:47.536Z,96358.97
2019-04-23T01:31:37.507Z,96353.83
2019-04-23T01:32:27.039Z,96342.67
2019-04-23T01:33:18.435Z,96363.21
2019-04-23T01:34:07.948Z,96360.24
2019-04-23T01:35:08.342Z,96357.84
2019-04-23T01:35:51.135Z,96356.84
2019-04-23T01:36:51.598Z,96348.02
2019-04-23T01:37:31.818Z,96351.93
2019-04-23T01:38:24.063Z,96360.15
2019-04-23T01:39:58.138Z,96356.61
2019-04-23T01:41:02.081Z,96357.17
2019-04-23T01:41:45.383Z,96351.93
2019-04-23T01:42:35.682Z,96353.06
2019-04-23T01:43:16.445Z,96350.33
2019-04-23T01:44:15.620Z,96353.06
2019-04-23T01:45:07.409Z,96348.16
2019-04-23T01:45:40.983Z,96363.80
2019-04-23T01:46:46.267Z,96359.69
2019-04-23T01:47:36.945Z,96354.77
2019-04-23T01:48:24.313Z,96353.98
2019-04-23T01:49:18.276Z,96340.66
2019-04-23T01:50:25.812Z,96350.00
2019-04-23T01:50:56.101Z,96355.48
2019-04-23T01:51:46.658Z,96352.17
2019-04-23T01:52:40.211Z,96353.62
2019-04-23T01:53:26.534Z,96347.34
2019-04-23T01:54:24.106Z,96343.03
2019-04-23T01:55:13.772Z,96351.25
2019-04-23T01:56:42.025Z,96349.41
2019-04-23T01:57:42.287Z,96353.86
2019-04-23T01:59:18.419Z,96349.55
2019-04-23T02:00:57.989Z,96339.40
2019-04-23T02:01:50.284Z,96344.64
2019-04-23T02:02:48.108Z,96344.64
2019-04-23T02:03:52.366Z,96346.58
2019-04-23T02:04:24.691Z,96335.63
2019-04-23T02:05:20.796Z,96340.30
2019-04-23T02:06:04.783Z,96338.59
2019-04-23T02:06:51.731Z,96341.91
2019-04-23T02:08:32.179Z,96335.63
2019-04-23T02:09:25.023Z,96335.06
2019-04-23T02:10:21.899Z,96342.70
2019-04-23T02:11:07.641Z,96329.02
2019-04-23T02:12:49.900Z,96337.43
2019-04-23T02:13:37.847Z,96340.40
2019-04-23T02:14:29.707Z,96332.75
2019-04-23T02:15:19.522Z,96340.17
2019-04-23T02:15:59.751Z,96347.61
2019-04-23T02:16:56.282Z,96335.63
2019-04-23T02:17:55.370Z,96335.86
2019-04-23T02:18:36.003Z,96344.08
2019-04-23T02:20:26.199Z,96341.10
2019-04-23T02:21:07.820Z,96344.64
2019-04-23T02:22:38.828Z,96345.21
2019-04-23T02:23:32.933Z,96338.13
2019-04-23T02:24:17.707Z,96341.67
2019-04-23T02:25:26.027Z,96334.03
2019-04-23T02:26:10.949Z,96330.48
2019-04-23T02:26:55.870Z,96331.86
2019-04-23T02:28:47.662Z,96330.48
2019-04-23T02:29:48.425Z,96332.09
2019-04-23T02:32:09.084Z,96324.34
2019-04-23T02:33:10.443Z,96334.13
2019-04-23T02:34:12.193Z,96322.84
2019-04-23T02:34:51.561Z,96326.03
2019-04-23T02:36:32.250Z,96318.82
2019-04-23T02:38:10.221Z,96317.95
2019-04-23T02:40:08.728Z,96319.18
2019-04-23T02:40:46.821Z,96311.19
2019-04-23T02:42:37.405Z,96304.81
2019-04-23T02:44:04.598Z,96319.16
2019-04-23T02:44:48.936Z,96309.02
2019-04-23T02:45:52.136Z,96307.07
2019-04-23T02:46:13.552Z,96311.61
2019-04-23T02:48:24.122Z,96300.31
2019-04-23T02:49:54.964Z,96300.75
2019-04-23T02:50:40.157Z,96302.34
2019-04-23T02:52:21.774Z,96301.44
2019-04-23T02:53:26.003Z,96301.09
2019-04-23T02:55:09.075Z,96292.28
2019-04-23T02:55:50.073Z,96288.41
2019-04-23T02:56:37.673Z,96294.11
2019-04-23T02:57:24.662Z,96287.49
2019-04-23T02:58:18.712Z,96299.45
2019-04-23T02:59:11.008Z,96298.88
2019-04-23T03:01:28.026Z,96283.24
2019-04-23T03:01:31.689Z,96279.93
2019-04-23T03:02:37.373Z,96287.81
2019-04-23T03:03:25.195Z,96289.41
2019-04-23T03:04:16.799Z,96279.22
2019-04-23T03:04:55.520Z,96280.02
2019-04-23T03:05:50.665Z,96284.36
2019-04-23T03:06:47.750Z,96282.42
2019-04-23T03:07:42.742Z,96286.76
2019-04-23T03:09:12.445Z,96285.25
2019-04-23T03:10:00.079Z,96285.47
2019-04-23T03:11:01.347Z,96279.42
2019-04-23T03:11:52.280Z,96288.30
2019-04-23T03:15:24.173Z,96282.34
2019-04-23T03:19:09.403Z,96283.59
2019-04-23T03:20:18.963Z,96287.14
2019-04-23T03:22:15.744Z,96280.48
2019-04-23T03:23:34.401Z,96274.81
2019-04-23T03:25:33.911Z,96278.91
2019-04-23T03:28:12.259Z,96275.61
2019-04-23T03:32:37.300Z,96277.75
2019-04-23T03:34:19.772Z,96277.41
2019-04-23T03:37:40.738Z,96283.91
2019-04-23T03:38:41.714Z,96290.77
2019-04-23T03:39:34.644Z,96282.54
2019-04-23T03:41:07.074Z,96283.34
2019-04-23T03:41:48.695Z,96280.23
2019-04-23T03:44:22.401Z,96282.97
2019-04-23T03:45:16.625Z,96278.86
2019-04-23T03:46:50.814Z,96277.48
2019-04-23T03:47:42.836Z,96280.23
2019-04-23T03:49:07.670Z,96273.37
2019-04-23T03:49:19.447Z,96281.03
2019-04-23T03:51:09.620Z,96288.11
2019-04-23T03:52:38.501Z,96284.56
2019-04-23T03:53:43.153Z,96277.14
2019-04-23T03:54:34.608Z,96285.37
2019-04-23T03:55:23.748Z,96281.48
2019-04-23T03:56:18.404Z,96285.59
2019-04-23T03:57:40.280Z,96285.02
2019-04-23T03:58:43.677Z,96285.59
2019-04-23T04:00:24.897Z,96284.80
2019-04-23T04:01:09.469Z,96276.80
2019-04-23T04:04:04.359Z,96281.48
2019-04-23T04:05:27.230Z,96276.23
2019-04-23T04:06:16.779Z,96284.08
2019-04-23T04:08:01.756Z,96281.11
2019-04-23T04:08:36.883Z,96285.22
2019-04-23T04:09:34.281Z,96281.11
2019-04-23T04:10:20.445Z,96285.22
2019-04-23T04:12:03.773Z,96282.71
2019-04-23T04:12:45.988Z,96286.25
2019-04-23T04:17:12.399Z,96291.16
2019-04-23T04:18:13.964Z,96289.80
2019-04-23T04:18:57.386Z,96291.16
2019-04-23T04:22:29.349Z,96296.73
2019-04-23T04:23:07.779Z,96298.09
2019-04-23T04:23:57.730Z,96300.84
2019-04-23T04:26:29.197Z,96297.41
2019-04-23T04:27:33.976Z,96296.81
2019-04-23T04:28:54.882Z,96293.50
2019-04-23T04:31:22.877Z,96289.05
2019-04-23T04:32:03.568Z,96289.05
2019-04-23T04:33:30.945Z,96298.30
2019-04-23T04:34:21.406Z,96293.61
2019-04-23T04:35:47.723Z,96296.55
2019-04-23T04:38:36.391Z,96289.70
2019-04-23T04:39:10.047Z,96286.84
2019-04-23T04:40:55.163Z,96295.64
2019-04-23T04:41:56.926Z,96291.75
2019-04-23T04:42:58.590Z,96305.09
2019-04-23T04:43:31.849Z,96296.06
2019-04-23T04:45:30.472Z,96300.63
2019-04-23T04:46:12.776Z,96294.01
2019-04-23T04:46:45.847Z,96291.84
2019-04-23T04:48:23.017Z,96294.23
2019-04-23T04:53:47.729Z,96300.60
2019-04-23T04:54:21.490Z,96302.77
2019-04-23T04:55:13.957Z,96298.06
2019-04-23T04:56:14.503Z,96297.14
2019-04-23T04:56:58.108Z,96302.05
2019-04-23T04:57:39.996Z,96298.59
2019-04-23T04:58:44.059Z,96296.08
2019-04-23T04:59:25.768Z,96297.11
2019-04-23T05:01:08.270Z,96295.59
2019-04-23T05:02:03.721Z,96302.09
2019-04-23T05:03:01.121Z,96295.67
2019-04-23T05:03:36.262Z,96300.58
2019-04-23T05:04:37.536Z,96304.34
2019-04-23T05:07:50.217Z,96294.56
2019-04-23T05:08:48.040Z,96294.22
2019-04-23T05:10:29.214Z,96295.67
2019-04-23T05:12:15.502Z,96298.48
2019-04-23T05:13:11.766Z,96297.80
2019-04-23T05:13:54.993Z,96294.10
2019-04-23T05:14:56.861Z,96297.30
2019-04-23T05:15:28.433Z,96293.60
2019-04-23T05:16:19.652Z,96292.91
2019-04-23T05:17:30.146Z,96302.14
2019-04-23T05:19:48.526Z,96304.84
2019-04-23T05:20:20.457Z,96301.37
2019-04-23T05:21:12.068Z,96300.67
2019-04-23T05:22:15.705Z,96298.34
2019-04-23T05:23:00.456Z,96292.52
2019-04-23T05:23:43.046Z,96289.05
2019-04-23T05:25:20.898Z,96292.31
2019-04-23T05:26:20.919Z,96293.56
2019-04-23T05:27:04.536Z,96291.48
2019-04-23T05:28:08.155Z,96297.05
2019-04-23T05:29:04.796Z,96285.11
2019-04-23T05:29:46.302Z,96293.45
2019-04-23T05:30:39.829Z,96289.75
2019-04-23T05:32:12.154Z,96293.66
2019-04-23T05:33:07.913Z,96296.28
2019-04-23T05:33:57.913Z,96293.38
2019-04-23T05:34:48.619Z,96292.09
2019-04-23T05:36:02.034Z,96295.14
2019-04-23T05:36:41.661Z,96302.07
2019-04-23T05:37:29.329Z,96292.88
2019-04-23T05:39:15.532Z,96299.33
2019-04-23T05:39:54.560Z,96298.81
2019-04-23T05:40:59.171Z,96304.59
2019-04-23T05:42:37.916Z,96310.22
2019-04-23T05:43:22.309Z,96297.92
2019-04-23T05:44:15.460Z,96298.01
2019-04-23T05:45:58.778Z,96299.95
2019-04-23T05:46:45.863Z,96294.52
2019-04-23T05:47:53.464Z,96300.88
2019-04-23T05:48:23.416Z,96293.48
2019-04-23T05:50:15.536Z,96304.24
2019-04-23T05:51:04.609Z,96301.77
2019-04-23T05:51:52.657Z,96299.30
2019-04-23T05:53:37.401Z,96303.98
2019-04-23T05:54:22.053Z,96302.08
2019-04-23T05:55:09.084Z,96307.09
2019-04-23T05:56:01.575Z,96305.19
2019-04-23T05:56:51.973Z,96306.27
2019-04-23T05:57:40.393Z,96307.14
2019-04-23T05:58:38.676Z,96313.91
2019-04-23T05:59:24.037Z,96303.56
2019-04-23T06:00:16.138Z,96303.26
2019-04-23T06:01:42.656Z,96304.11
2019-04-23T06:02:11.196Z,96303.00
2019-04-23T06:04:04.018Z,96305.31
2019-04-23T06:04:49.539Z,96302.64
2019-04-23T06:05:43.013Z,96306.24
2019-04-23T06:06:37.913Z,96309.84
2019-04-23T06:07:28.941Z,96312.06
2019-04-23T06:08:12.165Z,96308.19
2019-04-23T06:08:59.762Z,96315.34
2019-04-23T06:09:56.389Z,96308.50
2019-04-23T06:10:40.693Z,96312.90
2019-04-23T06:11:36.809Z,96315.11
2019-04-23T06:12:18.795Z,96314.58
2019-04-23T06:13:11.994Z,96311.28
2019-04-23T06:14:06.448Z,96307.23
2019-04-23T06:14:55.596Z,96303.72
2019-04-23T06:15:59.588Z,96299.05
2019-04-23T06:18:24.830Z,96304.92
2019-04-23T06:19:09.604Z,96301.98
2019-04-23T06:19:57.734Z,96307.75
2019-04-23T06:20:56.180Z,96297.16
2019-04-23T06:21:44.869Z,96304.89
2019-04-23T06:22:34.693Z,96303.33
2019-04-23T06:23:28.776Z,96302.59
2019-04-23T06:24:16.995Z,96293.02
2019-04-23T06:25:31.044Z,96296.97
2019-04-23T06:26:48.397Z,96302.00
2019-04-23T06:27:32.377Z,96292.17
2019-04-23T06:28:44.067Z,96304.61
2019-04-23T06:29:20.540Z,96289.30
2019-04-23T06:30:04.537Z,96287.37
2019-04-23T06:31:48.868Z,96291.97
2019-04-23T06:32:41.382Z,96293.16
2019-04-23T06:33:32.634Z,96298.13
2019-04-23T06:34:21.670Z,96305.05
2019-04-23T06:35:11.836Z,96300.76
2019-04-23T06:36:07.315Z,96299.41
2019-04-23T06:36:51.201Z,96300.63
2019-04-23T06:38:09.563Z,96301.83
2019-04-23T06:39:34.480Z,96300.50
2019-04-23T06:40:13.915Z,96309.42
2019-04-23T06:41:13.229Z,96303.14
2019-04-23T06:43:05.346Z,96299.45
2019-04-23T06:44:09.327Z,96309.14
2019-04-23T06:45:59.389Z,96306.45
2019-04-23T06:46:40.151Z,96305.48
2019-04-23T06:47:23.462Z,96297.80
2019-04-23T06:49:15.255Z,96300.42
2019-04-23T06:49:56.059Z,96299.47
2019-04-23T06:50:48.831Z,96291.00
2019-04-23T06:51:46.424Z,96298.72
2019-04-23T06:52:26.554Z,96305.03
2019-04-23T06:53:18.463Z,96302.70
2019-04-23T06:54:13.670Z,96299.75
2019-04-23T06:55:06.816Z,96309.25
2019-04-23T06:56:54.105Z,96312.83
2019-04-23T06:57:26.940Z,96309.08
2019-04-23T06:58:25.425Z,96302.63
2019-04-23T06:59:13.007Z,96296.73
2019-04-23T07:00:58.702Z,96298.72
2019-04-23T07:01:53.102Z,96304.64
2019-04-23T07:02:37.640Z,96307.83
2019-04-23T07:03:36.081Z,96307.45
2019-04-23T07:04:18.043Z,96305.08
2019-04-23T07:05:10.421Z,96304.70
2019-04-23T07:06:23.559Z,96310.04
2019-04-23T07:07:16.373Z,96305.73
2019-04-23T07:09:26.275Z,96314.45
2019-04-23T07:10:18.410Z,96319.20
2019-04-23T07:11:17.202Z,96313.89
2019-04-23T07:11:55.585Z,96308.17
2019-04-23T07:12:47.187Z,96308.59
2019-04-23T07:13:46.544Z,96312.33
2019-04-23T07:14:38.656Z,96315.52
2019-04-23T07:15:33.637Z,96306.05
2019-04-23T07:16:12.890Z,96314.36
2019-04-23T07:16:58.595Z,96318.89
2019-04-23T07:17:51.155Z,96311.82
2019-04-23T07:18:41.168Z,96314.39
2019-04-23T07:20:20.199Z,96318.58
2019-04-23T07:21:17.934Z,96321.36
2019-04-23T07:22:14.672Z,96317.59
2019-04-23T07:22:56.965Z,96323.92
2019-04-23T07:24:00.365Z,96320.78
2019-04-23T07:24:43.990Z,96319.80
2019-04-23T07:25:48.442Z,96317.23
2019-04-23T07:26:30.567Z,96321.59
2019-04-23T07:27:11.828Z,96321.22
2019-04-23T07:28:06.503Z,96318.84
2019-04-23T07:28:53.295Z,96321.61
2019-04-23T07:29:43.502Z,96320.05
2019-04-23T07:30:33.222Z,96320.64
2019-04-23T07:32:10.878Z,96326.98
2019-04-23T07:33:04.106Z,96329.75
2019-04-23T07:34:57.489Z,96335.28
2019-04-23T07:35:45.237Z,96332.14
2019-04-23T07:36:34.279Z,96336.09
2019-04-23T07:37:29.695Z,96323.27
2019-04-23T07:38:56.431Z,96333.75
2019-04-23T07:40:12.985Z,96328.60
2019-04-23T07:40:48.230Z,96335.55
2019-04-23T07:42:03.553Z,96326.27
2019-04-23T07:43:23.386Z,96322.33
2019-04-23T07:44:06.285Z,96333.01
2019-04-23T07:44:56.403Z,96330.84
2019-04-23T07:46:12.165Z,96330.45
2019-04-23T07:47:15.687Z,96318.81
2019-04-23T07:48:10.841Z,96328.29
2019-04-23T07:48:55.690Z,96325.14
2019-04-23T07:50:00.667Z,96327.71
2019-04-23T07:51:31.556Z,96313.53
2019-04-23T07:52:24.571Z,96320.24
2019-04-23T07:54:10.987Z,96322.04
2019-04-23T07:54:54.388Z,96321.63
2019-04-23T07:56:35.863Z,96322.05
2019-04-23T07:59:13.908Z,96329.98
2019-04-23T08:00:00.710Z,96339.45
2019-04-23T08:01:37.619Z,96334.13
2019-04-23T08:02:31.966Z,96339.28
2019-04-23T08:04:10.615Z,96329.98
2019-04-23T08:05:09.739Z,96332.16
2019-04-23T08:06:02.718Z,96336.31
2019-04-23T08:06:40.016Z,96339.08
2019-04-23T08:07:35.733Z,96332.95
2019-04-23T08:08:16.751Z,96337.31
2019-04-23T08:09:08.554Z,96338.32
2019-04-23T08:10:02.264Z,96339.70
2019-04-23T08:11:56.400Z,96347.39
2019-04-23T08:12:46.945Z,96340.09
2019-04-23T08:13:50.375Z,96345.03
2019-04-23T08:14:33.223Z,96352.96
2019-04-23T08:15:32.755Z,96342.47
2019-04-23T08:16:29.696Z,96342.27
2019-04-23T08:17:10.835Z,96349.40
2019-04-23T08:18:08.879Z,96348.22
2019-04-23T08:18:54.118Z,96348.43
2019-04-23T08:20:46.982Z,96349.61
2019-04-23T08:21:32.032Z,96354.55
2019-04-23T08:23:34.814Z,96353.38
2019-04-23T08:24:38.484Z,96357.92
2019-04-23T08:25:56.391Z,96350.41
2019-04-23T08:28:09.754Z,96359.89
2019-04-23T08:29:45.841Z,96360.69
2019-04-23T08:30:50.249Z,96359.30
2019-04-23T08:31:40.323Z,96359.51
2019-04-23T08:33:15.799Z,96359.72
2019-04-23T08:34:58.715Z,96357.92
2019-04-23T08:35:54.260Z,96363.28
2019-04-23T08:36:43.981Z,96364.87
2019-04-23T08:39:05.361Z,96366.67
2019-04-23T08:39:58.005Z,96367.27
2019-04-23T08:41:00.751Z,96363.49
2019-04-23T08:41:46.301Z,96366.67
2019-04-23T08:43:51.776Z,96368.65
2019-04-23T08:45:29.734Z,96366.09
2019-04-23T08:49:05.037Z,96365.87
2019-04-23T08:50:50.839Z,96370.83
2019-04-23T08:51:54.760Z,96369.45
2019-04-23T08:52:36.968Z,96364.50
2019-04-23T08:54:02.986Z,96362.73
2019-04-23T08:55:00.866Z,96356.61
2019-04-23T08:55:49.447Z,96360.96
2019-04-23T08:56:41.126Z,96366.68
2019-04-23T08:57:29.277Z,96361.77
2019-04-23T08:58:25.043Z,96364.91
2019-04-23T08:59:18.179Z,96364.53
2019-04-23T09:00:07.847Z,96363.34
2019-04-23T09:01:55.688Z,96353.24
2019-04-23T09:03:31.277Z,96359.41
2019-04-23T09:04:28.787Z,96358.78
2019-04-23T09:07:01.036Z,96365.53
2019-04-23T09:07:53.915Z,96361.38
2019-04-23T09:08:33.165Z,96363.94
2019-04-23T09:09:27.084Z,96358.39
2019-04-23T09:11:20.013Z,96360.40
2019-04-23T09:11:53.760Z,96361.19
2019-04-23T09:13:26.125Z,96357.03
2019-04-23T09:13:53.394Z,96364.34
2019-04-23T09:14:31.529Z,96360.19
2019-04-23T09:15:23.088Z,96367.91
2019-04-23T09:16:08.880Z,96363.37
2019-04-23T09:17:06.136Z,96355.86
2019-04-23T09:18:01.106Z,96356.83
2019-04-23T09:19:51.875Z,96354.64
2019-04-23T09:20:27.585Z,96363.75
2019-04-23T09:21:19.361Z,96354.05
2019-04-23T09:22:14.576Z,96360.01
2019-04-23T09:23:10.104Z,96355.27
2019-04-23T09:24:41.119Z,96358.83
2019-04-23T09:25:37.655Z,96359.80
2019-04-23T09:26:17.811Z,96351.10
2019-04-23T09:27:23.292Z,96354.25
2019-04-23T09:27:59.756Z,96351.89
2019-04-23T09:28:51.921Z,96357.67
2019-04-23T09:29:51.465Z,96361.81
2019-04-23T09:30:32.277Z,96361.44
2019-04-23T09:32:47.075Z,96359.66
2019-04-23T09:34:05.211Z,96351.72
2019-04-23T09:34:58.643Z,96348.77
2019-04-23T09:36:13.645Z,96352.91
2019-04-23T09:37:26.547Z,96347.36
2019-04-23T09:38:26.989Z,96345.38
2019-04-23T09:39:44.584Z,96346.16
2019-04-23T09:41:42.343Z,96344.98
2019-04-23T09:45:33.864Z,96344.75
2019-04-23T09:46:23.829Z,96340.98
2019-04-23T09:47:41.792Z,96344.12
2019-04-23T09:48:23.051Z,96345.30
2019-04-23T09:50:12.437Z,96342.89
2019-04-23T09:50:56.655Z,96346.25
2019-04-23T09:51:49.206Z,96345.47
2019-04-23T09:52:36.797Z,96350.20
2019-04-23T09:54:22.169Z,96355.77
2019-04-23T09:55:16.052Z,96357.94
2019-04-23T09:55:51.333Z,96364.27
2019-04-23T09:56:49.527Z,96359.48
2019-04-23T09:57:43.131Z,96364.81
2019-04-23T09:58:22.434Z,96363.44
2019-04-23T09:59:34.347Z,96358.06
2019-04-23T10:00:18.716Z,96351.50
2019-04-23T10:01:20.779Z,96352.86
2019-04-23T10:02:04.265Z,96353.47
2019-04-23T10:02:47.262Z,96352.64
2019-04-23T10:03:38.557Z,96361.74
2019-04-23T10:04:28.145Z,96355.57
2019-04-23T10:05:16.685Z,96363.11
2019-04-23T10:06:04.164Z,96362.49
2019-04-23T10:06:57.984Z,96369.41
2019-04-23T10:07:46.935Z,96358.08
2019-04-23T10:08:35.338Z,96359.27
2019-04-23T10:09:18.793Z,96355.67
2019-04-23T10:10:10.312Z,96365.20
2019-04-23T10:10:59.799Z,96361.80
2019-04-23T10:11:51.173Z,96365.56
2019-04-23T10:12:42.077Z,96362.56
2019-04-23T10:13:31.699Z,96358.80
2019-04-23T10:14:21.241Z,96362.53
2019-04-23T10:15:21.690Z,96363.33
2019-04-23T10:16:02.422Z,96361.73
2019-04-23T10:16:53.351Z,96365.73
2019-04-23T10:17:42.488Z,96364.16
2019-04-23T10:18:33.199Z,96366.53
2019-04-23T10:19:24.684Z,96365.14
2019-04-23T10:20:16.265Z,96364.77
2019-04-23T10:21:05.591Z,96365.17
2019-04-23T10:21:57.414Z,96368.14
2019-04-23T10:22:46.393Z,96368.57
2019-04-23T10:23:37.164Z,96364.43
2019-04-23T10:24:27.716Z,96369.59
2019-04-23T10:25:19.272Z,96365.02
2019-04-23T10:26:08.276Z,96369.81
2019-04-23T10:26:59.993Z,96378.14
2019-04-23T10:27:55.146Z,96371.00
2019-04-23T10:29:02.353Z,96379.93
2019-04-23T10:29:51.876Z,96379.93
2019-04-23T10:30:42.698Z,96375.36
2019-04-23T10:31:33.482Z,96378.14
2019-04-23T10:32:22.764Z,96383.33
2019-04-23T10:33:13.797Z,96377.57
2019-04-23T10:34:04.368Z,96381.53
2019-04-23T10:35:06.833Z,96379.95
2019-04-23T10:35:53.120Z,96378.39
2019-04-23T10:36:36.646Z,96385.13
2019-04-23T10:37:39.379Z,96388.90
2019-04-23T10:38:20.219Z,96395.27
2019-04-23T10:39:17.109Z,96390.70
2019-04-23T10:40:05.741Z,96398.66
2019-04-23T10:40:52.299Z,96394.30
2019-04-23T10:41:46.272Z,96400.66
2019-04-23T10:42:37.844Z,96400.27
2019-04-23T10:43:27.666Z,96401.45
2019-04-23T10:44:25.584Z,96392.55
2019-04-23T10:46:03.851Z,96400.50
2019-04-23T10:47:05.655Z,96393.75
2019-04-23T10:51:15.730Z,96392.59
2019-04-23T10:52:08.977Z,96399.94
2019-04-23T10:53:02.688Z,96396.19
2019-04-23T10:53:56.387Z,96393.82
2019-04-23T10:55:40.985Z,96396.80
2019-04-23T10:56:30.990Z,96404.52
2019-04-23T10:57:12.751Z,96398.59
2019-04-23T10:58:08.339Z,96403.73
2019-04-23T10:58:54.618Z,96398.99
2019-04-23T10:59:43.536Z,96400.17
2019-04-23T11:00:37.262Z,96394.05
2019-04-23T11:01:32.533Z,96393.84
2019-04-23T11:03:20.515Z,96396.63
2019-04-23T11:04:10.220Z,96399.80
2019-04-23T11:05:56.330Z,96394.47
2019-04-23T11:06:42.720Z,96397.83
2019-04-23T11:08:15.579Z,96393.27
2019-04-23T11:09:16.090Z,96400.02
2019-04-23T11:10:03.283Z,96394.86
2019-04-23T11:10:51.369Z,96404.16
2019-04-23T11:11:56.616Z,96400.22
2019-04-23T11:12:44.415Z,96401.20
2019-04-23T11:14:05.796Z,96406.38
2019-04-23T11:14:41.953Z,96405.16
2019-04-23T11:17:04.605Z,96401.23
2019-04-23T11:17:54.890Z,96403.80
2019-04-23T11:21:34.257Z,96411.13
2019-04-23T11:22:28.037Z,96410.13
2019-04-23T11:23:49.840Z,96408.36
2019-04-23T11:26:31.848Z,96412.11
2019-04-23T11:27:18.656Z,96404.80
2019-04-23T11:28:05.677Z,96405.98
2019-04-23T11:28:55.528Z,96408.55
2019-04-23T11:29:48.587Z,96412.70
2019-04-23T11:31:37.011Z,96413.88
2019-04-23T11:33:16.224Z,96417.45
2019-04-23T11:35:53.128Z,96423.98
2019-04-23T11:37:37.621Z,96420.23
2019-04-23T11:38:58.728Z,96415.88
2019-04-23T11:40:03.717Z,96415.88
2019-04-23T11:40:36.962Z,96412.90
2019-04-23T11:42:08.644Z,96413.28
2019-04-23T11:42:47.074Z,96406.56
2019-04-23T11:43:22.745Z,96416.06
2019-04-23T11:44:13.286Z,96410.72
2019-04-23T11:45:06.747Z,96409.72
2019-04-23T11:48:05.005Z,96403.77
2019-04-23T11:49:29.535Z,96409.72
2019-04-23T11:52:41.345Z,96401.98
2019-04-23T11:53:35.593Z,96410.08
2019-04-23T11:54:21.389Z,96405.52
2019-04-23T11:55:28.689Z,96412.23
2019-04-23T11:56:03.401Z,96411.47
2019-04-23T11:57:27.173Z,96410.27
2019-04-23T11:57:54.947Z,96414.03
2019-04-23T11:59:31.906Z,96404.72
2019-04-23T12:00:14.170Z,96406.48
2019-04-23T12:02:23.214Z,96410.27
2019-04-23T12:03:07.472Z,96410.44
2019-04-23T12:05:42.800Z,96415.39
2019-04-23T12:06:30.183Z,96412.61
2019-04-23T12:07:53.755Z,96413.20
2019-04-23T12:08:52.889Z,96403.09
2019-04-23T12:10:03.092Z,96408.84
2019-04-23T12:11:36.148Z,96413.76
2019-04-23T12:12:57.690Z,96416.73
2019-04-23T12:14:03.647Z,96420.68
2019-04-23T12:15:37.552Z,96411.78
2019-04-23T12:16:38.129Z,96409.59
2019-04-23T12:18:18.103Z,96426.59
2019-04-23T12:19:23.664Z,96416.73
2019-04-23T12:19:57.739Z,96421.47
2019-04-23T12:21:37.421Z,96419.08
2019-04-23T12:23:24.837Z,96414.92
2019-04-23T12:24:21.889Z,96425.20
2019-04-23T12:26:42.339Z,96418.45
2019-04-23T12:28:23.502Z,96421.00
2019-04-23T12:29:23.357Z,96436.22
2019-04-23T12:30:01.171Z,96433.03
2019-04-23T12:30:52.947Z,96427.70
2019-04-23T12:32:15.576Z,96426.69
2019-04-23T12:34:46.824Z,96432.59
2019-04-23T12:35:23.985Z,96426.09
2019-04-23T12:38:33.109Z,96432.94
2019-04-23T12:39:37.757Z,96441.63
2019-04-23T12:40:31.130Z,96429.16
2019-04-23T12:41:14.001Z,96436.66
2019-04-23T12:42:24.713Z,96428.77
2019-04-23T12:43:40.564Z,96422.61
2019-04-23T12:44:39.267Z,96422.61
2019-04-23T12:45:31.844Z,96429.52
2019-04-23T12:46:16.237Z,96436.05
2019-04-23T12:47:21.074Z,96442.97
2019-04-23T12:48:58.557Z,96427.09
2019-04-23T12:50:44.888Z,96428.88
2019-04-23T12:51:33.416Z,96427.88
2019-04-23T12:52:19.673Z,96413.04
2019-04-23T12:53:03.698Z,96415.62
2019-04-23T12:53:49.435Z,96427.45
2019-04-23T12:54:56.661Z,96427.06
2019-04-23T12:56:41.601Z,96424.67
2019-04-23T12:57:30.859Z,96416.17
2019-04-23T12:59:01.736Z,96418.17
2019-04-23T12:59:49.831Z,96416.78
2019-04-23T13:00:38.916Z,96421.91
2019-04-23T13:01:42.471Z,96411.43
2019-04-23T13:02:43.559Z,96417.17
2019-04-23T13:03:24.626Z,96425.68
2019-04-23T13:04:11.622Z,96429.62
2019-04-23T13:05:03.783Z,96423.72
2019-04-23T13:05:49.086Z,96419.56
2019-04-23T13:06:40.686Z,96423.92
2019-04-23T13:07:38.574Z,96430.22